Terminal Aerodrome Forecast
Issued by NWS

Home | Current Version | Previous Version | Text Only | Print | Product List | Glossary On
Versions: 1 2 3 4 5 6 7 8 9 10 11 12 13 14 15
659
FTUS43 KOAX 190951 AAA
TAFCDR
TAF AMD
KCDR 190951Z 1910/2006 02014KT 3SM -RA OVC005
     FM191300 03014G22KT 5SM SHRA OVC008
     FM192100 02012KT 6SM SHRA OVC025
     FM200000 36011KT P6SM OVC050=

USA.gov is the U.S. government's official web portal to all federal, state and local government web resources and services.